Time;durP1;ratioP1;P1;durP2;ratioP2;P2;SDS_P1;SDS_P2;PMS_P1;PMS_P2;Temp;Humidity;BMP_temperature;BMP_pressure;BME280_temperature;BME280_humidity;BME280_pressure;Samples;Min_cycle;Max_cycle;Signal;HPM_P1;HPM_P2
2023/02/09 00:01:12;;;;;;;33.40;15.82;;;-3.80;99.90;;;;;;5053909;28;20037;-64
2023/02/09 00:03:41;;;;;;;34.13;16.35;;;-3.80;99.90;;;;;;5046960;28;20057;-66
2023/02/09 00:06:12;;;;;;;31.85;15.57;;;-3.80;99.90;;;;;;5048471;28;20049;-65
2023/02/09 00:08:40;;;;;;;31.13;15.35;;;-3.80;99.90;;;;;;5054720;28;20511;-64
2023/02/09 00:11:19;;;;;;;31.92;15.32;;;-3.80;99.90;;;;;;5052751;28;20055;-63
2023/02/09 00:13:46;;;;;;;32.65;14.32;;;-3.90;99.90;;;;;;5051897;28;20037;-65
2023/02/09 00:16:14;;;;;;;29.85;15.18;;;-3.90;99.90;;;;;;5051000;28;20064;-66
2023/02/09 00:18:41;;;;;;;30.27;14.80;;;-4.00;99.90;;;;;;5053281;28;20056;-65
2023/02/09 00:21:10;;;;;;;28.77;14.68;;;-4.10;99.90;;;;;;5054185;28;20091;-65
2023/02/09 00:23:39;;;;;;;29.90;15.90;;;-4.10;99.90;;;;;;5040109;28;20060;-65
2023/02/09 00:26:10;;;;;;;27.98;14.57;;;-4.20;99.90;;;;;;5045987;28;20065;-64
2023/02/09 00:28:41;;;;;;;31.02;15.20;;;-4.20;99.90;;;;;;5057907;28;20467;-65
2023/02/09 00:31:11;;;;;;;30.52;14.90;;;-4.30;99.90;;;;;;5073772;28;20080;-66
2023/02/09 00:33:41;;;;;;;29.55;15.32;;;-4.30;99.90;;;;;;5081890;28;20091;-64
2023/02/09 00:36:12;;;;;;;29.83;15.27;;;-4.40;99.90;;;;;;5067538;28;20569;-64
2023/02/09 00:38:40;;;;;;;32.50;15.95;;;-4.40;99.90;;;;;;5071908;28;20105;-65
2023/02/09 00:41:09;;;;;;;32.90;15.27;;;-4.40;99.90;;;;;;5059445;28;20572;-65
2023/02/09 00:43:37;;;;;;;29.15;14.88;;;-4.50;99.90;;;;;;5073427;28;20127;-65
2023/02/09 00:46:04;;;;;;;29.90;15.25;;;-4.50;99.90;;;;;;5073299;28;20467;-66
2023/02/09 00:48:32;;;;;;;30.70;15.85;;;-4.50;99.90;;;;;;5064486;28;20110;-65
2023/02/09 00:51:00;;;;;;;28.75;14.77;;;-4.60;99.90;;;;;;5067376;28;20049;-65
2023/02/09 00:53:27;;;;;;;29.95;15.40;;;-4.60;99.90;;;;;;5088596;28;20555;-65
2023/02/09 00:55:55;;;;;;;30.23;14.13;;;-4.60;99.90;;;;;;5073354;28;20044;-65
2023/02/09 00:58:22;;;;;;;34.25;14.90;;;-4.70;99.90;;;;;;5080435;28;20048;-65
2023/02/09 01:00:50;;;;;;;34.03;15.85;;;-4.70;99.90;;;;;;5053330;28;20514;-65
2023/02/09 01:03:17;;;;;;;28.05;14.65;;;-4.70;99.90;;;;;;5083833;28;20041;-66
2023/02/09 01:05:45;;;;;;;30.83;15.18;;;-4.80;99.90;;;;;;5070146;28;20033;-65
2023/02/09 01:08:12;;;;;;;31.30;14.65;;;-4.80;99.90;;;;;;5051720;28;20480;-66
2023/02/09 01:10:40;;;;;;;33.05;15.32;;;-4.80;99.90;;;;;;5044589;28;20036;-66
2023/02/09 01:13:07;;;;;;;37.75;16.20;;;-4.90;99.90;;;;;;5065059;28;20033;-66
2023/02/09 01:15:38;;;;;;;39.22;17.30;;;-4.90;99.90;;;;;;5073260;28;20050;-65
2023/02/09 01:18:06;;;;;;;32.30;16.42;;;-4.90;99.90;;;;;;5066166;28;20453;-65
2023/02/09 01:20:34;;;;;;;33.70;15.95;;;-4.90;99.90;;;;;;5072584;28;20063;-64
2023/02/09 01:23:02;;;;;;;33.08;15.68;;;-4.90;99.90;;;;;;5071923;28;20056;-64
2023/02/09 01:25:29;;;;;;;33.85;15.10;;;-5.00;99.90;;;;;;5069255;28;20483;-65
2023/02/09 01:27:57;;;;;;;34.22;14.68;;;-5.00;99.90;;;;;;5072559;28;20045;-65
2023/02/09 01:30:24;;;;;;;31.27;15.15;;;-5.00;99.90;;;;;;5071327;28;20071;-69
2023/02/09 01:32:53;;;;;;;32.75;14.82;;;-4.90;99.90;;;;;;5088443;28;20040;-65
2023/02/09 01:35:21;;;;;;;33.85;15.02;;;-4.90;99.90;;;;;;5072368;28;20113;-66
2023/02/09 01:37:48;;;;;;;31.95;15.60;;;-4.90;99.90;;;;;;5072894;28;20041;-66
2023/02/09 01:40:15;;;;;;;24.95;13.13;;;-4.90;99.90;;;;;;5071073;28;20049;-65
2023/02/09 01:42:43;;;;;;;31.08;14.35;;;-4.90;99.90;;;;;;5072804;28;20380;-66
2023/02/09 01:45:27;;;;;;;27.05;14.10;;;-4.90;99.90;;;;;;5087817;28;20399;-65
2023/02/09 01:48:00;;;;;;;26.67;13.82;;;-4.90;99.90;;;;;;5033129;28;20145;-66
2023/02/09 01:50:29;;;;;;;;;;;-4.90;99.90;;;;;;5033416;28;20040;-65
2023/02/09 01:52:57;;;;;;;26.35;13.38;;;-5.00;99.90;;;;;;5062642;28;19921;-65
2023/02/09 01:55:29;;;;;;;29.17;13.13;;;-5.00;99.90;;;;;;5032303;28;20587;-66
2023/02/09 01:58:05;;;;;;;25.85;12.95;;;-5.00;99.90;;;;;;5030134;28;20052;-66
2023/02/09 02:00:32;;;;;;;27.83;13.02;;;-5.00;99.90;;;;;;5036421;28;20168;-65
2023/02/09 02:03:04;;;;;;;25.63;13.18;;;-5.10;99.90;;;;;;5039186;28;20141;-65
2023/02/09 02:05:38;;;;;;;25.33;11.60;;;-5.00;99.90;;;;;;5035386;28;20057;-65
2023/02/09 02:08:18;;;;;;;22.52;11.85;;;-5.00;99.90;;;;;;5049159;28;20036;-65
2023/02/09 02:10:45;;;;;;;24.50;12.68;;;-4.90;99.90;;;;;;5048788;28;20033;-66
2023/02/09 02:13:13;;;;;;;27.15;11.82;;;-4.80;99.90;;;;;;5066032;28;20047;-64
2023/02/09 02:16:14;;;;;;;25.00;12.32;;;-4.70;99.90;;;;;;5049995;28;20045;-65
2023/02/09 02:19:17;;;;;;;23.25;12.20;;;-4.70;99.90;;;;;;5050508;28;20033;-65
2023/02/09 02:22:15;;;;;;;26.33;11.85;;;-4.70;99.90;;;;;;5046629;28;20037;-64
2023/02/09 02:25:02;;;;;;;24.17;11.88;;;-4.80;99.90;;;;;;5030250;28;20046;-65
2023/02/09 02:27:44;;;;;;;23.83;12.15;;;-4.80;99.90;;;;;;5030436;28;20033;-65
2023/02/09 02:30:27;;;;;;;25.63;13.07;;;-4.90;99.90;;;;;;5031233;28;20046;-65
2023/02/09 02:33:24;;;;;;;23.55;12.82;;;-4.90;99.90;;;;;;5031200;28;20526;-64
2023/02/09 02:35:51;;;;;;;23.17;11.40;;;-5.00;99.90;;;;;;5031424;28;20057;-64
2023/02/09 02:39:02;;;;;;;29.67;13.50;;;-5.10;99.90;;;;;;5030460;28;20416;-66
2023/02/09 02:44:28;;;;;;;26.42;12.90;;;-5.20;99.90;;;;;;5007868;28;20497;-65
2023/02/09 02:47:00;;;;;;;29.02;14.07;;;-5.20;99.90;;;;;;4991590;28;20041;-65
2023/02/09 02:49:36;;;;;;;26.52;13.13;;;-5.30;99.90;;;;;;5007930;28;20042;-66
2023/02/09 02:52:07;;;;;;;28.23;13.00;;;-5.30;99.90;;;;;;5007661;28;20137;-65
2023/02/09 02:54:40;;;;;;;30.23;14.30;;;-5.30;99.90;;;;;;5009247;28;20529;-65
2023/02/09 02:57:30;;;;;;;26.88;13.30;;;-5.40;99.90;;;;;;5006949;28;20057;-64
2023/02/09 03:00:13;;;;;;;23.80;12.23;;;-5.40;99.90;;;;;;5008191;28;20050;-65
2023/02/09 03:02:51;;;;;;;30.08;12.70;;;-5.40;99.90;;;;;;5006152;28;20046;-64
2023/02/09 03:05:22;;;;;;;24.83;11.98;;;-5.40;99.90;;;;;;5008489;28;20141;-64
2023/02/09 03:07:49;;;;;;;28.15;13.60;;;-5.40;99.90;;;;;;5008327;28;20053;-65
2023/02/09 03:10:33;;;;;;;30.10;13.82;;;-5.30;99.90;;;;;;4992727;28;20065;-66
2023/02/09 03:13:03;;;;;;;27.55;13.10;;;-5.30;99.90;;;;;;5007661;28;20192;-65
2023/02/09 03:15:50;;;;;;;23.15;11.80;;;-5.20;99.90;;;;;;5018856;28;20467;-65
2023/02/09 03:18:20;;;;;;;28.90;12.48;;;-5.30;99.90;;;;;;5061523;28;20060;-65
2023/02/09 03:20:55;;;;;;;23.80;12.10;;;-5.30;99.90;;;;;;5030752;28;20064;-65
2023/02/09 03:23:46;;;;;;;23.17;11.20;;;-5.20;99.90;;;;;;5030777;28;20042;-66
2023/02/09 03:26:19;;;;;;;26.25;12.95;;;-5.30;99.90;;;;;;5030802;28;20048;-65
2023/02/09 03:28:51;;;;;;;25.60;12.52;;;-5.30;99.90;;;;;;5031077;28;20504;-65
2023/02/09 03:31:20;;;;;;;25.98;12.68;;;-5.30;99.90;;;;;;5029302;28;20113;-66
2023/02/09 03:33:49;;;;;;;26.15;12.52;;;-5.40;99.90;;;;;;5029650;28;20128;-65
2023/02/09 03:36:18;;;;;;;27.00;13.35;;;-5.40;99.90;;;;;;5031022;28;20053;-65
2023/02/09 03:38:45;;;;;;;23.70;12.32;;;-5.40;99.90;;;;;;5030821;28;20038;-65
2023/02/09 03:41:13;;;;;;;23.55;11.93;;;-5.40;99.90;;;;;;5030557;28;20045;-65
2023/02/09 03:46:26;;;;;;;26.75;12.60;;;-5.40;99.90;;;;;;5040886;28;20412;-65
2023/02/09 03:48:53;;;;;;;26.23;12.43;;;-5.40;99.90;;;;;;5030541;28;20080;-65
2023/02/09 03:51:20;;;;;;;27.52;11.88;;;-5.50;99.90;;;;;;5033078;28;20038;-65
2023/02/09 03:53:47;;;;;;;22.98;12.07;;;-5.50;99.90;;;;;;5030545;28;20566;-65
2023/02/09 03:56:15;;;;;;;20.73;11.30;;;-5.50;99.90;;;;;;5029556;28;20475;-66
2023/02/09 03:58:42;;;;;;;25.13;11.65;;;-5.60;99.90;;;;;;5032504;28;20112;-65
2023/02/09 04:01:10;;;;;;;23.73;11.70;;;-5.60;99.90;;;;;;5049635;28;20049;-65
2023/02/09 04:03:38;;;;;;;23.92;11.88;;;-5.60;99.90;;;;;;5051043;28;20388;-65
2023/02/09 04:06:06;;;;;;;25.83;12.07;;;-5.60;99.90;;;;;;5050278;28;20502;-64
2023/02/09 04:08:33;;;;;;;23.83;11.32;;;-5.70;99.90;;;;;;5040444;28;20397;-66
2023/02/09 04:11:01;;;;;;;27.17;11.95;;;-5.70;99.90;;;;;;5030651;28;20046;-65
2023/02/09 04:13:28;;;;;;;25.40;12.43;;;-5.70;99.90;;;;;;5031141;28;20041;-67
2023/02/09 04:15:55;;;;;;;27.27;13.52;;;-5.70;99.90;;;;;;5034356;28;20049;-65
2023/02/09 04:18:22;;;;;;;24.42;13.25;;;-5.80;99.90;;;;;;5051423;28;20550;-65
2023/02/09 04:20:50;;;;;;;25.85;12.77;;;-5.80;99.90;;;;;;5053935;28;20051;-64
2023/02/09 04:23:17;;;;;;;28.58;12.52;;;-5.80;99.90;;;;;;5037984;28;20496;-64
2023/02/09 04:25:47;;;;;;;28.60;12.98;;;-5.90;99.90;;;;;;5032688;28;20103;-67
2023/02/09 04:28:16;;;;;;;23.15;12.20;;;-5.90;99.90;;;;;;5033788;28;20555;-65
2023/02/09 04:30:44;;;;;;;27.23;12.90;;;-5.90;99.90;;;;;;5031824;28;20467;-65
2023/02/09 04:33:12;;;;;;;23.27;12.18;;;-6.00;99.90;;;;;;5033742;28;20088;-65
2023/02/09 04:35:39;;;;;;;28.50;12.95;;;-6.00;99.90;;;;;;5048371;28;20059;-65
2023/02/09 04:38:06;;;;;;;26.98;12.23;;;-6.10;99.90;;;;;;5031819;28;20041;-65
2023/02/09 04:40:33;;;;;;;24.40;11.52;;;-6.10;99.90;;;;;;5033140;28;20045;-65
2023/02/09 04:43:01;;;;;;;26.85;12.98;;;-6.10;99.90;;;;;;5047084;28;20441;-65
2023/02/09 04:45:28;;;;;;;23.83;12.15;;;-6.10;99.90;;;;;;5032309;28;20519;-66
2023/02/09 04:47:55;;;;;;;24.08;11.38;;;-6.10;99.90;;;;;;5052331;28;20061;-65
2023/02/09 04:50:22;;;;;;;25.38;12.73;;;-6.10;99.90;;;;;;5051776;28;20505;-64
2023/02/09 04:52:50;;;;;;;25.40;12.48;;;-6.10;99.90;;;;;;5035314;28;20050;-65
2023/02/09 04:55:17;;;;;;;26.25;13.35;;;-6.10;99.90;;;;;;5032193;28;20054;-65
2023/02/09 05:00:30;;;;;;;25.33;12.45;;;-6.10;99.90;;;;;;5046160;28;20051;-65
2023/02/09 05:02:58;;;;;;;28.08;13.63;;;-6.10;99.90;;;;;;5052345;28;20041;-65
2023/02/09 05:05:25;;;;;;;24.13;12.82;;;-6.10;99.90;;;;;;5051851;28;20116;-64
2023/02/09 05:07:52;;;;;;;26.23;13.65;;;-6.10;99.90;;;;;;5034547;28;20076;-66
2023/02/09 05:10:20;;;;;;;24.75;13.07;;;-6.10;99.90;;;;;;5031419;28;20136;-65
2023/02/09 05:12:47;;;;;;;22.67;11.93;;;-6.10;99.90;;;;;;5032519;28;20057;-65
2023/02/09 05:15:14;;;;;;;25.27;12.23;;;-6.10;99.90;;;;;;5046980;28;20068;-65
2023/02/09 05:17:42;;;;;;;29.88;12.25;;;-6.20;99.90;;;;;;5050845;28;20053;-66
2023/02/09 05:20:09;;;;;;;34.05;14.75;;;-6.20;99.90;;;;;;5052786;28;20045;-65
2023/02/09 05:22:37;;;;;;;28.15;13.57;;;-6.10;99.90;;;;;;5043518;28;20530;-64
2023/02/09 05:25:04;;;;;;;34.33;13.70;;;-6.00;99.90;;;;;;5031172;28;20128;-65
2023/02/09 05:27:32;;;;;;;31.45;13.95;;;-6.00;99.90;;;;;;5042690;28;20276;-65
2023/02/09 05:29:59;;;;;;;27.02;12.80;;;-5.90;99.90;;;;;;5049622;28;20040;-65
2023/02/09 05:32:26;;;;;;;25.75;12.63;;;-5.80;99.90;;;;;;5041569;28;20052;-65
2023/02/09 05:34:54;;;;;;;30.15;13.35;;;-5.80;99.90;;;;;;5032053;28;20496;-65
2023/02/09 05:37:21;;;;;;;30.52;14.40;;;-5.80;99.90;;;;;;5039909;28;20098;-64
2023/02/09 05:39:49;;;;;;;22.60;13.55;;;-5.80;99.90;;;;;;5051988;28;20059;-65
2023/02/09 05:42:17;;;;;;;27.42;13.52;;;-5.70;99.90;;;;;;5044353;28;20038;-65
2023/02/09 05:44:47;;;;;;;27.40;14.07;;;-5.70;99.90;;;;;;5046467;28;20041;-66
2023/02/09 05:47:17;;;;;;;25.80;12.43;;;-5.70;99.90;;;;;;5030309;28;20133;-66
2023/02/09 05:49:44;;;;;;;23.95;12.30;;;-5.70;99.90;;;;;;5035927;28;20034;-65
2023/02/09 05:52:12;;;;;;;31.25;14.95;;;-5.70;99.90;;;;;;5030195;28;20041;-66
2023/02/09 05:54:40;;;;;;;31.60;13.57;;;-5.80;99.90;;;;;;5032145;28;20497;-65
2023/02/09 05:57:07;;;;;;;27.98;12.70;;;-5.80;99.90;;;;;;5031687;28;20051;-65
2023/02/09 05:59:34;;;;;;;24.63;13.13;;;-5.80;99.90;;;;;;5034822;28;20041;-65
2023/02/09 06:02:02;;;;;;;25.00;12.20;;;-5.80;99.90;;;;;;5032476;28;20051;-65
2023/02/09 06:04:29;;;;;;;29.90;13.57;;;-5.80;99.90;;;;;;5063217;28;20091;-65
2023/02/09 06:06:57;;;;;;;30.60;12.98;;;-5.90;99.90;;;;;;5080102;28;20048;-65
2023/02/09 06:09:24;;;;;;;28.85;13.30;;;-5.90;99.90;;;;;;5071535;28;20044;-66
2023/02/09 06:11:52;;;;;;;29.50;13.45;;;-5.90;99.90;;;;;;5071457;28;20068;-66
2023/02/09 06:14:19;;;;;;;25.88;13.45;;;-5.90;99.90;;;;;;5072109;28;20555;-66
2023/02/09 06:16:47;;;;;;;31.25;13.85;;;-5.90;99.90;;;;;;5071277;28;20487;-65
2023/02/09 06:19:17;;;;;;;25.40;12.90;;;-5.80;99.90;;;;;;5071854;28;20078;-66
2023/02/09 06:21:44;;;;;;;27.88;13.25;;;-5.90;99.90;;;;;;5070363;28;20048;-66
2023/02/09 06:24:12;;;;;;;27.10;13.05;;;-5.90;99.90;;;;;;5071187;28;20036;-67
2023/02/09 06:26:41;;;;;;;26.77;13.43;;;-5.90;99.90;;;;;;5086176;28;20040;-66
2023/02/09 06:29:08;;;;;;;26.63;13.05;;;-5.90;99.90;;;;;;5070452;28;20410;-67
2023/02/09 06:31:36;;;;;;;30.02;14.27;;;-5.90;99.90;;;;;;5071250;28;20040;-66
2023/02/09 06:34:04;;;;;;;30.75;15.20;;;-5.90;99.90;;;;;;5071696;28;20127;-65
2023/02/09 06:36:32;;;;;;;29.98;14.18;;;-5.90;99.90;;;;;;5070533;28;20067;-64
2023/02/09 06:39:00;;;;;;;30.75;14.00;;;-5.90;99.90;;;;;;5071309;28;20071;-66
2023/02/09 06:41:27;;;;;;;31.83;14.70;;;-5.90;99.90;;;;;;5051057;28;20048;-65
2023/02/09 06:43:54;;;;;;;29.40;14.48;;;-5.90;99.90;;;;;;5051364;28;20068;-65
2023/02/09 06:46:22;;;;;;;31.10;14.07;;;-5.90;99.90;;;;;;5073185;28;20032;-65
2023/02/09 06:48:49;;;;;;;30.63;13.82;;;-5.90;99.90;;;;;;5037662;28;20037;-65
2023/02/09 06:51:17;;;;;;;30.58;14.73;;;-5.80;99.90;;;;;;5053036;28;20147;-66
2023/02/09 06:53:44;;;;;;;28.92;13.93;;;-5.90;99.90;;;;;;5068329;28;20131;-66
2023/02/09 06:56:12;;;;;;;28.10;13.88;;;-5.80;99.90;;;;;;5064172;28;20147;-66
2023/02/09 06:58:40;;;;;;;31.05;13.73;;;-5.80;99.90;;;;;;5051040;28;20043;-66
2023/02/09 07:01:14;;;;;;;31.20;14.07;;;-5.70;99.90;;;;;;5050894;28;20143;-66
2023/02/09 07:03:42;;;;;;;25.23;13.43;;;-5.60;99.90;;;;;;5060972;28;20435;-65
2023/02/09 07:06:13;;;;;;;26.65;13.27;;;-5.50;99.90;;;;;;5085681;28;20491;-64
2023/02/09 07:08:42;;;;;;;28.45;12.95;;;-5.30;99.90;;;;;;5059356;28;20448;-66
2023/02/09 07:11:12;;;;;;;21.13;11.15;;;-5.20;99.90;;;;;;5052313;28;20067;-66
2023/02/09 07:13:40;;;;;;;29.83;11.95;;;-5.20;99.90;;;;;;5050334;28;20072;-66
2023/02/09 07:16:09;;;;;;;24.52;12.20;;;-5.10;99.90;;;;;;5050611;28;20069;-66
2023/02/09 07:18:38;;;;;;;23.38;12.32;;;-5.10;99.90;;;;;;5056919;28;20078;-66
2023/02/09 07:21:14;;;;;;;20.60;11.35;;;-5.00;99.90;;;;;;5051213;28;20041;-65
2023/02/09 07:23:41;;;;;;;23.13;11.73;;;-5.00;99.90;;;;;;5053067;28;20056;-66
2023/02/09 07:26:12;;;;;;;22.48;12.10;;;-5.00;99.90;;;;;;5058212;28;20040;-66
2023/02/09 07:28:40;;;;;;;21.80;11.48;;;-4.90;99.90;;;;;;5052369;28;20237;-66
2023/02/09 07:31:09;;;;;;;25.48;12.80;;;-4.80;99.90;;;;;;5050218;28;20418;-65
2023/02/09 07:33:37;;;;;;;27.75;13.02;;;-4.80;99.90;;;;;;5058730;28;20402;-66
2023/02/09 07:36:10;;;;;;;28.48;12.95;;;-4.70;99.90;;;;;;5054091;28;20044;-66
2023/02/09 07:38:38;;;;;;;23.98;11.48;;;-4.60;99.90;;;;;;5046668;28;20385;-66
2023/02/09 07:41:11;;;;;;;27.85;11.40;;;-4.50;99.90;;;;;;5058356;28;20037;-66
2023/02/09 07:43:38;;;;;;;25.38;12.45;;;-4.40;99.90;;;;;;5069823;28;20041;-66
2023/02/09 07:46:06;;;;;;;22.73;11.90;;;-4.40;99.90;;;;;;5049272;28;20033;-67
2023/02/09 07:48:34;;;;;;;21.73;11.80;;;-4.30;99.90;;;;;;5045540;28;20045;-68
2023/02/09 07:51:02;;;;;;;24.10;12.02;;;-4.30;99.90;;;;;;5034088;28;20044;-68
2023/02/09 07:53:30;;;;;;;23.33;12.07;;;-4.20;99.90;;;;;;5051777;28;20606;-68
2023/02/09 07:55:57;;;;;;;26.08;12.55;;;-4.20;99.90;;;;;;5052177;28;20148;-67
2023/02/09 07:58:25;;;;;;;28.75;13.93;;;-4.10;99.90;;;;;;5041008;28;20072;-66
2023/02/09 08:00:52;;;;;;;26.88;11.93;;;-4.00;99.90;;;;;;5043730;28;20049;-67
2023/02/09 08:03:23;;;;;;;21.60;10.77;;;-3.90;99.90;;;;;;5053259;28;20041;-65
2023/02/09 08:06:00;;;;;;;21.45;11.95;;;-3.80;99.90;;;;;;5052452;28;20442;-68
2023/02/09 08:08:27;;;;;;;21.25;11.77;;;-3.70;99.90;;;;;;5034301;28;20555;-67
2023/02/09 08:10:56;;;;;;;23.40;10.93;;;-3.60;99.90;;;;;;5049709;28;20041;-64
2023/02/09 08:13:27;;;;;;;18.85;9.90;;;-3.60;99.90;;;;;;5038889;28;20053;-64
2023/02/09 08:15:59;;;;;;;22.80;11.43;;;-3.50;99.90;;;;;;5033495;28;20472;-69
2023/02/09 08:18:34;;;;;;;31.15;13.85;;;-3.50;99.90;;;;;;5044020;28;20052;-66
2023/02/09 08:21:05;;;;;;;23.80;10.80;;;-3.40;99.90;;;;;;5053225;28;20064;-65
2023/02/09 08:23:34;;;;;;;19.65;11.30;;;-3.30;99.90;;;;;;5035426;28;20369;-65
2023/02/09 08:26:06;;;;;;;19.88;11.25;;;-3.20;99.90;;;;;;5040781;28;20049;-66
2023/02/09 08:28:34;;;;;;;21.50;10.63;;;-3.20;99.90;;;;;;5051012;28;20049;-66
2023/02/09 08:31:15;;;;;;;19.48;10.98;;;-3.10;99.90;;;;;;5050748;28;20071;-64
2023/02/09 08:33:42;;;;;;;;;;;-3.00;99.90;;;;;;5039288;28;20076;-64
2023/02/09 08:36:11;;;;;;;24.88;13.85;;;-2.90;99.90;;;;;;5032988;28;19931;-64
2023/02/09 08:38:38;;;;;;;23.67;13.18;;;-2.90;99.90;;;;;;5050368;28;20052;-65
2023/02/09 08:41:08;;;;;;;28.48;14.25;;;-2.70;99.90;;;;;;5053429;28;20400;-65
2023/02/09 08:43:36;;;;;;;24.48;11.70;;;-2.70;99.90;;;;;;5068006;28;20043;-65
2023/02/09 08:46:09;;;;;;;25.13;12.77;;;-2.60;99.90;;;;;;5052187;28;20102;-65
2023/02/09 08:48:43;;;;;;;22.63;12.32;;;-2.50;99.90;;;;;;5036186;28;20060;-64
2023/02/09 08:51:12;;;;;;;20.90;11.63;;;-2.50;99.90;;;;;;5050235;28;20415;-64
2023/02/09 08:53:40;;;;;;;19.35;11.05;;;-2.30;99.90;;;;;;5038797;28;20040;-66
2023/02/09 08:56:07;;;;;;;40.17;17.65;;;-2.20;99.90;;;;;;5051283;28;20041;-66
2023/02/09 08:58:35;;;;;;;25.98;13.07;;;-2.20;99.90;;;;;;5031976;28;20573;-65
2023/02/09 09:01:04;;;;;;;23.00;11.13;;;-2.10;99.90;;;;;;5037141;28;20041;-64
2023/02/09 09:03:32;;;;;;;20.42;11.13;;;-1.90;99.90;;;;;;5038837;28;20457;-66
2023/02/09 09:06:01;;;;;;;21.05;10.07;;;-1.80;99.90;;;;;;5052153;28;20102;-65
2023/02/09 09:08:30;;;;;;;22.30;9.98;;;-1.70;99.90;;;;;;5033299;28;20046;-65
2023/02/09 09:10:57;;;;;;;16.95;9.68;;;-1.60;99.90;;;;;;5044596;28;20072;-67
2023/02/09 09:13:25;;;;;;;18.45;9.63;;;-1.70;99.90;;;;;;5039416;28;20064;-66
2023/02/09 09:15:56;;;;;;;20.27;9.77;;;-1.60;99.90;;;;;;5036445;28;20041;-64
2023/02/09 09:18:25;;;;;;;18.37;9.77;;;-1.40;99.90;;;;;;5037423;28;20053;-66
2023/02/09 09:20:54;;;;;;;19.48;10.27;;;-1.20;99.90;;;;;;5043219;28;20068;-65
2023/02/09 09:23:22;;;;;;;20.60;10.18;;;-1.10;99.90;;;;;;5028283;28;20108;-65
2023/02/09 09:25:49;;;;;;;15.82;9.18;;;-0.90;99.90;;;;;;5030234;28;20038;-65
2023/02/09 09:28:17;;;;;;;18.50;10.48;;;-0.80;99.90;;;;;;5030831;28;20593;-62
2023/02/09 09:30:44;;;;;;;17.02;9.48;;;-0.70;99.90;;;;;;5036978;28;20033;-65
2023/02/09 09:33:11;;;;;;;15.98;9.32;;;-0.70;99.90;;;;;;5041484;28;20041;-65
2023/02/09 09:35:38;;;;;;;15.20;9.38;;;-0.60;99.90;;;;;;5040131;28;20069;-65
2023/02/09 09:38:06;;;;;;;17.52;9.63;;;-0.50;99.90;;;;;;5031031;28;20053;-65
2023/02/09 09:40:36;;;;;;;19.20;10.18;;;-0.40;99.90;;;;;;5038311;28;20040;-67
2023/02/09 09:43:07;;;;;;;20.58;10.05;;;-0.30;99.90;;;;;;5044088;28;20471;-65
2023/02/09 09:45:37;;;;;;;17.48;10.65;;;-0.20;99.90;;;;;;5046940;28;20040;-65
2023/02/09 09:48:17;;;;;;;17.38;10.38;;;-0.10;99.90;;;;;;5050439;28;20043;-65
2023/02/09 09:50:45;;;;;;;15.05;10.32;;;-0.30;99.90;;;;;;5042345;28;20043;-66
2023/02/09 09:53:34;;;;;;;15.80;9.95;;;-0.20;99.90;;;;;;5030635;28;20388;-65
2023/02/09 09:56:07;;;;;;;17.48;10.02;;;-0.10;99.90;;;;;;5029992;28;20053;-63
2023/02/09 09:58:41;;;;;;;16.20;10.43;;;0.00;99.90;;;;;;5031514;28;20515;-66
2023/02/09 10:01:12;;;;;;;16.95;10.55;;;-0.20;99.90;;;;;;5033591;28;20041;-67
2023/02/09 10:03:39;;;;;;;15.13;9.98;;;-0.10;99.90;;;;;;5047084;28;20126;-66
2023/02/09 10:06:20;;;;;;;17.75;11.10;;;0.00;99.90;;;;;;5037190;28;20029;-64
2023/02/09 10:08:51;;;;;;;18.20;11.00;;;0.10;99.90;;;;;;5049243;28;20048;-63
2023/02/09 10:11:31;;;;;;;17.45;10.55;;;0.00;99.90;;;;;;5028746;28;20048;-65
2023/02/09 10:13:59;;;;;;;18.35;11.38;;;-0.10;99.90;;;;;;5030820;28;20041;-67
2023/02/09 10:16:33;;;;;;;20.02;10.75;;;0.00;99.90;;;;;;5042170;28;20045;-67
2023/02/09 10:19:18;;;;;;;18.45;11.68;;;0.20;99.90;;;;;;5034933;28;20120;-66
2023/02/09 10:21:47;;;;;;;17.48;11.18;;;0.30;99.90;;;;;;5045783;28;20041;-65
2023/02/09 10:24:30;;;;;;;20.38;11.93;;;0.50;99.90;;;;;;5044528;28;20033;-65
2023/02/09 10:27:03;;;;;;;19.15;12.35;;;0.30;99.90;;;;;;5043720;28;20519;-65
2023/02/09 10:29:30;;;;;;;21.25;12.32;;;0.50;99.90;;;;;;5050791;28;20048;-67
2023/02/09 10:32:07;;;;;;;18.10;11.70;;;0.60;99.90;;;;;;5034120;28;20466;-67
2023/02/09 10:34:37;;;;;;;22.38;12.23;;;0.80;99.90;;;;;;5043203;28;20450;-65
2023/02/09 10:37:25;;;;;;;18.83;12.48;;;1.10;99.90;;;;;;5042778;28;20384;-67
2023/02/09 10:40:00;;;;;;;20.10;12.40;;;1.40;99.90;;;;;;5045589;28;20531;-67
2023/02/09 10:42:31;;;;;;;21.88;13.85;;;1.60;99.90;;;;;;5036566;28;20045;-65
2023/02/09 10:45:37;;;;;;;21.73;13.70;;;1.70;99.90;;;;;;5036473;28;20072;-66
2023/02/09 10:48:20;;;;;;;21.92;13.07;;;1.60;99.90;;;;;;5049597;28;20464;-65
2023/02/09 10:50:59;;;;;;;21.75;13.93;;;1.80;99.90;;;;;;5048612;28;20464;-64
2023/02/09 10:53:30;;;;;;;22.15;13.15;;;1.90;99.90;;;;;;5050455;28;20416;-67
2023/02/09 10:56:03;;;;;;;;;;;1.80;99.90;;;;;;5047722;28;20548;-64
2023/02/09 10:58:34;;;;;;;;;;;1.90;99.90;;;;;;5033394;28;19929;-67
2023/02/09 11:01:10;;;;;;;27.80;14.37;;;1.70;99.90;;;;;;5048214;28;20115;-68
2023/02/09 11:03:59;;;;;;;27.98;15.20;;;2.10;99.90;;;;;;5044340;28;20076;-66
2023/02/09 11:06:31;;;;;;;25.27;15.35;;;2.30;99.90;;;;;;5049653;28;20037;-66
2023/02/09 11:09:05;;;;;;;23.70;14.82;;;2.50;99.90;;;;;;5047272;28;20051;-66
2023/02/09 11:11:36;;;;;;;25.08;15.35;;;2.60;99.90;;;;;;5048457;28;20044;-65
2023/02/09 11:14:13;;;;;;;22.08;13.98;;;3.00;99.90;;;;;;5044496;28;20057;-66
2023/02/09 11:17:10;;;;;;;25.92;16.10;;;3.30;99.90;;;;;;5044518;28;20049;-65
2023/02/09 11:19:55;;;;;;;28.58;16.33;;;3.40;99.90;;;;;;5030309;28;20053;-65
2023/02/09 11:22:38;;;;;;;25.25;16.15;;;3.80;99.90;;;;;;5051375;28;20045;-65
2023/02/09 11:25:57;;;;;;;28.70;17.05;;;4.00;99.90;;;;;;5057550;28;20045;-64
2023/02/09 11:28:38;;;;;;;25.95;14.95;;;4.30;99.90;;;;;;4991287;28;20132;-64
2023/02/09 11:31:40;;;;;;;25.40;16.77;;;4.00;99.90;;;;;;5055079;28;20602;-64
2023/02/09 11:34:32;;;;;;;29.33;17.08;;;4.00;99.90;;;;;;5056359;28;20569;-65
2023/02/09 11:37:21;;;;;;;30.33;17.05;;;4.40;99.90;;;;;;5047643;28;20053;-64
2023/02/09 11:40:07;;;;;;;25.00;15.85;;;4.90;99.90;;;;;;5048554;28;20464;-63
2023/02/09 11:42:45;;;;;;;26.63;17.08;;;5.20;99.90;;;;;;5038363;28;20452;-65
2023/02/09 11:45:27;;;;;;;30.77;15.65;;;5.60;99.90;;;;;;5039944;28;20384;-66
2023/02/09 11:48:03;;;;;;;27.67;15.20;;;6.00;99.90;;;;;;5057156;28;20044;-67
2023/02/09 11:50:36;;;;;;;24.50;15.52;;;6.50;99.90;;;;;;5065247;28;20052;-66
2023/02/09 11:53:29;;;;;;;23.60;15.60;;;6.40;99.90;;;;;;5065165;28;20044;-66
2023/02/09 11:56:03;;;;;;;35.05;18.52;;;6.60;99.90;;;;;;5043047;28;20048;-66
2023/02/09 11:58:57;;;;;;;30.45;18.38;;;6.90;99.90;;;;;;5043722;28;20042;-67
2023/02/09 12:01:27;;;;;;;26.70;16.33;;;7.50;99.90;;;;;;5037596;28;20329;-66
2023/02/09 12:04:04;;;;;;;27.75;16.60;;;7.30;99.90;;;;;;5046544;28;20587;-67
2023/02/09 12:06:38;;;;;;;23.77;15.95;;;6.90;99.90;;;;;;5050585;28;20397;-66
2023/02/09 12:09:25;;;;;;;22.38;15.80;;;6.40;99.90;;;;;;5041639;28;20049;-67
2023/02/09 12:12:05;;;;;;;20.98;14.82;;;6.80;99.90;;;;;;5051220;28;20040;-66
2023/02/09 12:15:11;;;;;;;24.30;15.27;;;6.90;99.90;;;;;;5036104;28;20045;-67
2023/02/09 12:17:53;;;;;;;20.90;15.10;;;7.50;99.90;;;;;;5047820;28;20083;-66
2023/02/09 12:20:26;;;;;;;30.50;16.50;;;8.40;99.90;;;;;;5046458;28;20503;-66
2023/02/09 12:23:14;;;;;;;24.35;15.02;;;8.40;99.90;;;;;;5045955;28;20050;-68
2023/02/09 12:25:53;;;;;;;25.10;15.60;;;8.90;99.90;;;;;;5034694;28;20084;-67
2023/02/09 12:28:30;;;;;;;23.23;16.42;;;9.30;99.90;;;;;;5039777;28;20128;-68
2023/02/09 12:30:59;;;;;;;22.42;16.08;;;8.60;99.90;;;;;;5054515;28;20060;-67
2023/02/09 12:33:29;;;;;;;31.23;18.70;;;8.70;99.90;;;;;;5053667;28;20040;-67
2023/02/09 12:36:08;;;;;;;23.98;16.48;;;9.30;99.90;;;;;;5050195;28;20052;-66
2023/02/09 12:38:51;;;;;;;24.83;16.27;;;10.00;99.90;;;;;;5047540;28;20507;-66
2023/02/09 12:41:49;;;;;;;21.88;15.88;;;10.90;98.00;;;;;;5056555;28;20045;-65
2023/02/09 12:44:20;;;;;;;25.80;15.85;;;11.70;96.30;;;;;;5032324;28;20056;-67
2023/02/09 12:46:51;;;;;;;22.58;16.95;;;11.90;95.40;;;;;;5044195;28;20039;-68
2023/02/09 12:49:42;;;;;;;23.15;16.63;;;12.90;91.70;;;;;;5059249;28;20033;-68
2023/02/09 12:52:14;;;;;;;23.95;16.58;;;12.60;91.00;;;;;;5052076;28;20475;-68
2023/02/09 12:54:48;;;;;;;24.45;17.70;;;13.10;90.00;;;;;;5048861;28;20043;-67
2023/02/09 12:57:15;;;;;;;23.17;16.65;;;13.00;88.90;;;;;;5040493;28;20033;-69
2023/02/09 12:59:51;;;;;;;22.70;17.67;;;13.50;86.70;;;;;;5042374;28;20037;-68
2023/02/09 13:02:29;;;;;;;22.77;17.85;;;13.20;86.40;;;;;;5045593;28;20361;-69
2023/02/09 13:04:59;;;;;;;22.52;16.98;;;13.80;82.40;;;;;;5031315;28;20045;-68